sensor_id;sensor_type;location;lat;lon;timestamp;temperature;humidity
27823;DHT22;29019;47.630;8.262;2023-06-01T00:00:48;21.50;51.80
27823;DHT22;29019;47.630;8.262;2023-06-01T00:04:50;21.40;51.80
27823;DHT22;29019;47.630;8.262;2023-06-01T00:08:50;21.50;51.80
27823;DHT22;29019;47.630;8.262;2023-06-01T00:12:51;21.40;51.80
27823;DHT22;29019;47.630;8.262;2023-06-01T00:16:51;21.40;51.80
27823;DHT22;29019;47.630;8.262;2023-06-01T00:20:52;21.50;51.80
27823;DHT22;29019;47.630;8.262;2023-06-01T00:24:53;21.40;51.80
27823;DHT22;29019;47.630;8.262;2023-06-01T00:28:53;21.40;51.90
27823;DHT22;29019;47.630;8.262;2023-06-01T00:32:54;21.40;51.90
27823;DHT22;29019;47.630;8.262;2023-06-01T00:36:55;21.40;51.90
27823;DHT22;29019;47.630;8.262;2023-06-01T00:40:56;21.40;51.90
27823;DHT22;29019;47.630;8.262;2023-06-01T00:44:56;21.40;51.90
27823;DHT22;29019;47.630;8.262;2023-06-01T00:48:59;21.40;51.90
27823;DHT22;29019;47.630;8.262;2023-06-01T00:53:00;21.40;51.90
27823;DHT22;29019;47.630;8.262;2023-06-01T00:57:03;21.40;51.90
27823;DHT22;29019;47.630;8.262;2023-06-01T01:01:04;21.40;51.90
27823;DHT22;29019;47.630;8.262;2023-06-01T01:05:06;21.40;51.90
27823;DHT22;29019;47.630;8.262;2023-06-01T01:09:23;21.40;51.90
27823;DHT22;29019;47.630;8.262;2023-06-01T01:13:41;21.40;51.90
27823;DHT22;29019;47.630;8.262;2023-06-01T01:17:44;21.40;51.90
27823;DHT22;29019;47.630;8.262;2023-06-01T01:21:49;21.40;51.90
27823;DHT22;29019;47.630;8.262;2023-06-01T01:30:26;21.40;51.90
27823;DHT22;29019;47.630;8.262;2023-06-01T01:34:28;21.40;52.00
27823;DHT22;29019;47.630;8.262;2023-06-01T01:38:33;21.40;51.90
27823;DHT22;29019;47.630;8.262;2023-06-01T01:42:34;21.40;52.00
27823;DHT22;29019;47.630;8.262;2023-06-01T01:51:44;21.40;52.00
27823;DHT22;29019;47.630;8.262;2023-06-01T01:55:48;21.40;52.00
27823;DHT22;29019;47.630;8.262;2023-06-01T01:59:51;21.40;52.00
27823;DHT22;29019;47.630;8.262;2023-06-01T02:04:00;21.40;52.00
27823;DHT22;29019;47.630;8.262;2023-06-01T02:08:01;21.40;52.00
27823;DHT22;29019;47.630;8.262;2023-06-01T02:12:02;21.40;52.00
27823;DHT22;29019;47.630;8.262;2023-06-01T02:16:03;21.40;52.00
27823;DHT22;29019;47.630;8.262;2023-06-01T02:20:04;21.40;52.10
27823;DHT22;29019;47.630;8.262;2023-06-01T02:24:05;21.40;52.10
27823;DHT22;29019;47.630;8.262;2023-06-01T02:28:07;21.40;52.10
27823;DHT22;29019;47.630;8.262;2023-06-01T02:32:08;21.30;52.00
27823;DHT22;29019;47.630;8.262;2023-06-01T02:36:09;21.40;52.00
27823;DHT22;29019;47.630;8.262;2023-06-01T02:40:10;21.40;52.00
27823;DHT22;29019;47.630;8.262;2023-06-01T02:44:11;21.40;52.00
27823;DHT22;29019;47.630;8.262;2023-06-01T02:48:12;21.30;52.00
27823;DHT22;29019;47.630;8.262;2023-06-01T02:52:13;21.40;52.10
27823;DHT22;29019;47.630;8.262;2023-06-01T02:56:14;21.40;52.00
27823;DHT22;29019;47.630;8.262;2023-06-01T03:00:15;21.40;52.00
27823;DHT22;29019;47.630;8.262;2023-06-01T03:04:16;21.30;52.00
27823;DHT22;29019;47.630;8.262;2023-06-01T03:08:18;21.40;52.00
27823;DHT22;29019;47.630;8.262;2023-06-01T03:12:18;21.40;52.00
27823;DHT22;29019;47.630;8.262;2023-06-01T03:16:19;21.40;52.00
27823;DHT22;29019;47.630;8.262;2023-06-01T03:20:20;21.30;52.00
27823;DHT22;29019;47.630;8.262;2023-06-01T03:24:20;21.40;52.00
27823;DHT22;29019;47.630;8.262;2023-06-01T03:28:23;21.40;52.10
27823;DHT22;29019;47.630;8.262;2023-06-01T03:32:23;21.30;52.00
27823;DHT22;29019;47.630;8.262;2023-06-01T03:36:24;21.30;52.00
27823;DHT22;29019;47.630;8.262;2023-06-01T03:40:25;21.40;52.10
27823;DHT22;29019;47.630;8.262;2023-06-01T03:44:26;21.30;52.10
27823;DHT22;29019;47.630;8.262;2023-06-01T03:48:27;21.30;52.10
27823;DHT22;29019;47.630;8.262;2023-06-01T03:52:28;21.30;52.60
27823;DHT22;29019;47.630;8.262;2023-06-01T03:56:29;21.30;52.10
27823;DHT22;29019;47.630;8.262;2023-06-01T04:00:30;21.30;52.10
27823;DHT22;29019;47.630;8.262;2023-06-01T04:04:31;21.30;52.10
27823;DHT22;29019;47.630;8.262;2023-06-01T04:08:33;21.30;52.10
27823;DHT22;29019;47.630;8.262;2023-06-01T04:12:33;21.30;52.10
27823;DHT22;29019;47.630;8.262;2023-06-01T04:16:34;21.40;52.10
27823;DHT22;29019;47.630;8.262;2023-06-01T04:20:35;21.40;51.90
27823;DHT22;29019;47.630;8.262;2023-06-01T04:24:35;21.50;51.80
27823;DHT22;29019;47.630;8.262;2023-06-01T04:28:36;21.50;51.80
27823;DHT22;29019;47.630;8.262;2023-06-01T04:32:44;21.50;52.30
27823;DHT22;29019;47.630;8.262;2023-06-01T04:36:46;21.40;51.80
27823;DHT22;29019;47.630;8.262;2023-06-01T04:40:47;21.50;51.80
27823;DHT22;29019;47.630;8.262;2023-06-01T04:44:48;21.50;51.80
27823;DHT22;29019;47.630;8.262;2023-06-01T04:48:50;21.50;51.90
27823;DHT22;29019;47.630;8.262;2023-06-01T04:53:00;21.50;51.90
27823;DHT22;29019;47.630;8.262;2023-06-01T04:57:01;21.40;51.80
27823;DHT22;29019;47.630;8.262;2023-06-01T05:01:02;21.40;51.90
27823;DHT22;29019;47.630;8.262;2023-06-01T05:05:03;21.40;51.80
27823;DHT22;29019;47.630;8.262;2023-06-01T05:09:04;21.40;51.90
27823;DHT22;29019;47.630;8.262;2023-06-01T05:13:05;21.40;51.90
27823;DHT22;29019;47.630;8.262;2023-06-01T05:17:06;21.40;51.90
27823;DHT22;29019;47.630;8.262;2023-06-01T05:21:06;21.40;51.90
27823;DHT22;29019;47.630;8.262;2023-06-01T05:25:07;21.40;51.90
27823;DHT22;29019;47.630;8.262;2023-06-01T05:29:08;21.40;51.90
27823;DHT22;29019;47.630;8.262;2023-06-01T05:33:08;21.40;52.00
27823;DHT22;29019;47.630;8.262;2023-06-01T05:37:09;21.40;52.00
27823;DHT22;29019;47.630;8.262;2023-06-01T05:41:10;21.40;52.00
27823;DHT22;29019;47.630;8.262;2023-06-01T05:45:10;21.40;52.00
27823;DHT22;29019;47.630;8.262;2023-06-01T05:49:11;21.40;52.00
27823;DHT22;29019;47.630;8.262;2023-06-01T05:53:12;21.40;52.00
27823;DHT22;29019;47.630;8.262;2023-06-01T05:57:12;21.40;52.00
27823;DHT22;29019;47.630;8.262;2023-06-01T06:01:13;21.40;52.00
27823;DHT22;29019;47.630;8.262;2023-06-01T06:05:14;21.40;52.00
27823;DHT22;29019;47.630;8.262;2023-06-01T06:09:15;21.40;52.00
27823;DHT22;29019;47.630;8.262;2023-06-01T06:13:16;21.40;52.00
27823;DHT22;29019;47.630;8.262;2023-06-01T06:17:17;21.40;52.00
27823;DHT22;29019;47.630;8.262;2023-06-01T06:21:18;21.40;52.00
27823;DHT22;29019;47.630;8.262;2023-06-01T06:25:19;21.40;52.00
27823;DHT22;29019;47.630;8.262;2023-06-01T06:29:20;21.40;52.00
27823;DHT22;29019;47.630;8.262;2023-06-01T06:33:20;21.40;52.00
27823;DHT22;29019;47.630;8.262;2023-06-01T06:37:21;21.40;52.00
27823;DHT22;29019;47.630;8.262;2023-06-01T06:41:22;21.40;52.10
27823;DHT22;29019;47.630;8.262;2023-06-01T06:45:23;21.40;52.10
27823;DHT22;29019;47.630;8.262;2023-06-01T06:49:24;21.40;52.10
27823;DHT22;29019;47.630;8.262;2023-06-01T06:53:24;21.30;52.00
27823;DHT22;29019;47.630;8.262;2023-06-01T06:57:25;21.40;52.10
27823;DHT22;29019;47.630;8.262;2023-06-01T07:01:26;21.30;52.10
27823;DHT22;29019;47.630;8.262;2023-06-01T07:05:27;21.30;52.10
27823;DHT22;29019;47.630;8.262;2023-06-01T07:09:27;21.40;52.10
27823;DHT22;29019;47.630;8.262;2023-06-01T07:13:28;21.40;52.00
27823;DHT22;29019;47.630;8.262;2023-06-01T07:17:29;21.40;52.00
27823;DHT22;29019;47.630;8.262;2023-06-01T07:21:29;21.40;52.00
27823;DHT22;29019;47.630;8.262;2023-06-01T07:25:30;21.40;52.40
27823;DHT22;29019;47.630;8.262;2023-06-01T07:29:31;21.40;51.90
27823;DHT22;29019;47.630;8.262;2023-06-01T07:33:32;21.40;52.00
27823;DHT22;29019;47.630;8.262;2023-06-01T07:37:34;21.40;51.90
27823;DHT22;29019;47.630;8.262;2023-06-01T07:41:35;21.40;52.00
27823;DHT22;29019;47.630;8.262;2023-06-01T07:45:35;21.40;52.00
27823;DHT22;29019;47.630;8.262;2023-06-01T07:49:36;21.40;52.00
27823;DHT22;29019;47.630;8.262;2023-06-01T07:53:37;21.40;52.00
27823;DHT22;29019;47.630;8.262;2023-06-01T07:57:38;21.40;52.00
27823;DHT22;29019;47.630;8.262;2023-06-01T08:01:39;21.40;52.00
27823;DHT22;29019;47.630;8.262;2023-06-01T08:05:40;21.40;52.50
27823;DHT22;29019;47.630;8.262;2023-06-01T08:09:42;21.40;52.00
27823;DHT22;29019;47.630;8.262;2023-06-01T08:13:44;21.40;52.00
27823;DHT22;29019;47.630;8.262;2023-06-01T08:17:46;21.40;52.10
27823;DHT22;29019;47.630;8.262;2023-06-01T08:21:47;21.40;52.10
27823;DHT22;29019;47.630;8.262;2023-06-01T08:25:47;21.30;52.00
27823;DHT22;29019;47.630;8.262;2023-06-01T08:29:49;21.40;52.10
27823;DHT22;29019;47.630;8.262;2023-06-01T08:33:50;21.40;52.10
27823;DHT22;29019;47.630;8.262;2023-06-01T08:37:51;21.40;52.10
27823;DHT22;29019;47.630;8.262;2023-06-01T08:42:09;21.30;52.10
27823;DHT22;29019;47.630;8.262;2023-06-01T08:46:13;21.30;52.20
27823;DHT22;29019;47.630;8.262;2023-06-01T08:50:15;21.30;52.20
27823;DHT22;29019;47.630;8.262;2023-06-01T08:54:16;21.30;52.20
27823;DHT22;29019;47.630;8.262;2023-06-01T08:58:18;21.30;52.20
27823;DHT22;29019;47.630;8.262;2023-06-01T09:02:18;21.30;52.20
27823;DHT22;29019;47.630;8.262;2023-06-01T09:06:19;21.30;52.20
27823;DHT22;29019;47.630;8.262;2023-06-01T09:10:24;21.30;52.20
27823;DHT22;29019;47.630;8.262;2023-06-01T09:14:25;21.30;52.20
27823;DHT22;29019;47.630;8.262;2023-06-01T09:18:27;21.30;52.20
27823;DHT22;29019;47.630;8.262;2023-06-01T09:22:45;21.30;52.20
27823;DHT22;29019;47.630;8.262;2023-06-01T09:26:49;21.30;52.20
27823;DHT22;29019;47.630;8.262;2023-06-01T09:30:50;21.30;52.20
27823;DHT22;29019;47.630;8.262;2023-06-01T09:34:50;21.30;52.20
27823;DHT22;29019;47.630;8.262;2023-06-01T09:39:00;21.30;52.20
27823;DHT22;29019;47.630;8.262;2023-06-01T09:43:01;21.30;52.20
27823;DHT22;29019;47.630;8.262;2023-06-01T09:47:07;21.30;52.20
27823;DHT22;29019;47.630;8.262;2023-06-01T09:51:24;21.30;52.20
27823;DHT22;29019;47.630;8.262;2023-06-01T09:55:29;21.30;52.20
27823;DHT22;29019;47.630;8.262;2023-06-01T09:59:41;21.30;52.20
27823;DHT22;29019;47.630;8.262;2023-06-01T10:03:42;21.30;52.20
27823;DHT22;29019;47.630;8.262;2023-06-01T10:07:44;21.30;52.20
27823;DHT22;29019;47.630;8.262;2023-06-01T10:11:45;21.30;52.20
27823;DHT22;29019;47.630;8.262;2023-06-01T10:15:46;21.30;52.20
27823;DHT22;29019;47.630;8.262;2023-06-01T10:19:47;21.30;52.30
27823;DHT22;29019;47.630;8.262;2023-06-01T10:23:48;21.30;52.30
27823;DHT22;29019;47.630;8.262;2023-06-01T10:27:59;21.30;52.30
27823;DHT22;29019;47.630;8.262;2023-06-01T10:32:01;21.30;52.30
27823;DHT22;29019;47.630;8.262;2023-06-01T10:36:02;21.30;52.30
27823;DHT22;29019;47.630;8.262;2023-06-01T10:48:53;21.30;52.30
27823;DHT22;29019;47.630;8.262;2023-06-01T10:52:55;21.30;52.30
27823;DHT22;29019;47.630;8.262;2023-06-01T10:57:21;21.30;52.30
27823;DHT22;29019;47.630;8.262;2023-06-01T11:01:22;21.30;52.20
27823;DHT22;29019;47.630;8.262;2023-06-01T11:09:47;21.30;52.30
27823;DHT22;29019;47.630;8.262;2023-06-01T11:14:11;21.30;52.30
27823;DHT22;29019;47.630;8.262;2023-06-01T11:22:43;21.30;52.30
27823;DHT22;29019;47.630;8.262;2023-06-01T11:26:48;21.30;52.30
27823;DHT22;29019;47.630;8.262;2023-06-01T11:30:50;21.30;52.30
27823;DHT22;29019;47.630;8.262;2023-06-01T11:34:50;21.30;52.30
27823;DHT22;29019;47.630;8.262;2023-06-01T11:38:53;21.30;52.20
27823;DHT22;29019;47.630;8.262;2023-06-01T11:42:53;21.30;52.20
27823;DHT22;29019;47.630;8.262;2023-06-01T11:46:56;21.30;52.20
27823;DHT22;29019;47.630;8.262;2023-06-01T11:50:57;21.30;52.20
27823;DHT22;29019;47.630;8.262;2023-06-01T11:55:04;21.30;52.30
27823;DHT22;29019;47.630;8.262;2023-06-01T11:59:05;21.30;52.30
27823;DHT22;29019;47.630;8.262;2023-06-01T12:03:09;21.30;52.30
27823;DHT22;29019;47.630;8.262;2023-06-01T12:07:09;21.30;52.30
27823;DHT22;29019;47.630;8.262;2023-06-01T12:11:10;21.30;52.30
27823;DHT22;29019;47.630;8.262;2023-06-01T12:15:17;21.30;52.30
27823;DHT22;29019;47.630;8.262;2023-06-01T12:19:17;21.30;52.20
27823;DHT22;29019;47.630;8.262;2023-06-01T12:23:18;21.30;52.20
27823;DHT22;29019;47.630;8.262;2023-06-01T12:27:20;21.30;52.20
27823;DHT22;29019;47.630;8.262;2023-06-01T12:31:21;21.30;52.20
27823;DHT22;29019;47.630;8.262;2023-06-01T12:35:22;21.30;52.20
27823;DHT22;29019;47.630;8.262;2023-06-01T12:39:32;21.40;52.80
27823;DHT22;29019;47.630;8.262;2023-06-01T12:43:48;21.40;52.30
27823;DHT22;29019;47.630;8.262;2023-06-01T12:47:49;21.30;52.20
27823;DHT22;29019;47.630;8.262;2023-06-01T12:51:50;21.30;52.20
27823;DHT22;29019;47.630;8.262;2023-06-01T12:55:51;21.40;52.30
27823;DHT22;29019;47.630;8.262;2023-06-01T12:59:52;21.40;52.20
27823;DHT22;29019;47.630;8.262;2023-06-01T13:03:52;21.40;52.30
27823;DHT22;29019;47.630;8.262;2023-06-01T13:07:53;21.40;52.20
27823;DHT22;29019;47.630;8.262;2023-06-01T13:11:54;21.40;52.20
27823;DHT22;29019;47.630;8.262;2023-06-01T13:15:55;21.40;52.20
27823;DHT22;29019;47.630;8.262;2023-06-01T13:19:55;21.40;52.20
27823;DHT22;29019;47.630;8.262;2023-06-01T13:23:56;21.40;52.20
27823;DHT22;29019;47.630;8.262;2023-06-01T13:27:57;21.40;52.20
27823;DHT22;29019;47.630;8.262;2023-06-01T13:31:58;21.40;52.20
27823;DHT22;29019;47.630;8.262;2023-06-01T13:35:59;21.40;52.20
27823;DHT22;29019;47.630;8.262;2023-06-01T13:39:59;21.40;52.30
27823;DHT22;29019;47.630;8.262;2023-06-01T13:44:00;21.40;52.20
27823;DHT22;29019;47.630;8.262;2023-06-01T13:48:00;21.30;52.20
27823;DHT22;29019;47.630;8.262;2023-06-01T13:52:02;21.40;52.20
27823;DHT22;29019;47.630;8.262;2023-06-01T13:56:02;21.40;52.20
27823;DHT22;29019;47.630;8.262;2023-06-01T14:00:04;21.40;52.20
27823;DHT22;29019;47.630;8.262;2023-06-01T14:04:05;21.40;52.20
27823;DHT22;29019;47.630;8.262;2023-06-01T14:08:06;21.40;52.20
27823;DHT22;29019;47.630;8.262;2023-06-01T14:12:08;21.40;52.20
27823;DHT22;29019;47.630;8.262;2023-06-01T14:16:09;21.40;52.20
27823;DHT22;29019;47.630;8.262;2023-06-01T14:20:10;21.40;52.20
27823;DHT22;29019;47.630;8.262;2023-06-01T14:24:11;21.40;52.20
27823;DHT22;29019;47.630;8.262;2023-06-01T14:28:11;21.40;52.20
27823;DHT22;29019;47.630;8.262;2023-06-01T14:32:12;21.40;52.10
27823;DHT22;29019;47.630;8.262;2023-06-01T14:36:13;21.40;52.10
27823;DHT22;29019;47.630;8.262;2023-06-01T14:40:14;21.40;52.20
27823;DHT22;29019;47.630;8.262;2023-06-01T14:44:14;21.40;52.20
27823;DHT22;29019;47.630;8.262;2023-06-01T14:48:15;21.40;52.10
27823;DHT22;29019;47.630;8.262;2023-06-01T14:52:16;21.40;52.10
27823;DHT22;29019;47.630;8.262;2023-06-01T14:56:16;21.50;52.20
27823;DHT22;29019;47.630;8.262;2023-06-01T15:00:17;21.40;52.10
27823;DHT22;29019;47.630;8.262;2023-06-01T15:04:18;21.40;52.10
27823;DHT22;29019;47.630;8.262;2023-06-01T15:08:19;21.40;52.20
27823;DHT22;29019;47.630;8.262;2023-06-01T15:12:23;21.40;52.20
27823;DHT22;29019;47.630;8.262;2023-06-01T15:16:24;21.40;52.20
27823;DHT22;29019;47.630;8.262;2023-06-01T15:20:27;21.40;52.70
27823;DHT22;29019;47.630;8.262;2023-06-01T15:24:30;21.40;52.30
27823;DHT22;29019;47.630;8.262;2023-06-01T15:28:30;21.40;52.30
27823;DHT22;29019;47.630;8.262;2023-06-01T15:32:31;21.40;52.20
27823;DHT22;29019;47.630;8.262;2023-06-01T15:36:32;21.40;52.20
27823;DHT22;29019;47.630;8.262;2023-06-01T15:40:33;21.40;52.20
27823;DHT22;29019;47.630;8.262;2023-06-01T15:44:37;21.40;52.30
27823;DHT22;29019;47.630;8.262;2023-06-01T15:48:38;21.40;52.30
27823;DHT22;29019;47.630;8.262;2023-06-01T15:52:39;21.40;52.30
27823;DHT22;29019;47.630;8.262;2023-06-01T15:56:42;21.40;52.20
27823;DHT22;29019;47.630;8.262;2023-06-01T16:00:43;21.40;52.30
27823;DHT22;29019;47.630;8.262;2023-06-01T16:04:44;21.40;52.30
27823;DHT22;29019;47.630;8.262;2023-06-01T16:08:44;21.40;52.30
27823;DHT22;29019;47.630;8.262;2023-06-01T16:12:45;21.40;52.20
27823;DHT22;29019;47.630;8.262;2023-06-01T16:16:46;21.40;52.30
27823;DHT22;29019;47.630;8.262;2023-06-01T16:20:46;21.40;52.80
27823;DHT22;29019;47.630;8.262;2023-06-01T16:24:47;21.40;52.30
27823;DHT22;29019;47.630;8.262;2023-06-01T16:28:48;21.40;52.30
27823;DHT22;29019;47.630;8.262;2023-06-01T16:32:50;21.40;52.30
27823;DHT22;29019;47.630;8.262;2023-06-01T16:36:50;21.40;52.30
27823;DHT22;29019;47.630;8.262;2023-06-01T16:40:51;21.40;52.30
27823;DHT22;29019;47.630;8.262;2023-06-01T16:44:52;21.40;52.30
27823;DHT22;29019;47.630;8.262;2023-06-01T16:48:52;21.40;52.30
27823;DHT22;29019;47.630;8.262;2023-06-01T16:52:53;21.40;52.30
27823;DHT22;29019;47.630;8.262;2023-06-01T16:56:54;21.30;52.30
27823;DHT22;29019;47.630;8.262;2023-06-01T17:00:54;21.40;52.40
27823;DHT22;29019;47.630;8.262;2023-06-01T17:04:55;21.40;52.30
27823;DHT22;29019;47.630;8.262;2023-06-01T17:08:56;21.40;52.30
27823;DHT22;29019;47.630;8.262;2023-06-01T17:12:58;21.40;52.30
27823;DHT22;29019;47.630;8.262;2023-06-01T17:16:58;21.40;52.30
27823;DHT22;29019;47.630;8.262;2023-06-01T17:20:59;21.40;52.30
27823;DHT22;29019;47.630;8.262;2023-06-01T17:25:00;21.40;52.30
27823;DHT22;29019;47.630;8.262;2023-06-01T17:29:03;21.40;52.30
27823;DHT22;29019;47.630;8.262;2023-06-01T17:33:04;21.30;52.20
27823;DHT22;29019;47.630;8.262;2023-06-01T17:37:05;21.40;52.30
27823;DHT22;29019;47.630;8.262;2023-06-01T17:41:06;21.40;52.30
27823;DHT22;29019;47.630;8.262;2023-06-01T17:45:07;21.40;52.30
27823;DHT22;29019;47.630;8.262;2023-06-01T17:49:09;21.40;52.30
27823;DHT22;29019;47.630;8.262;2023-06-01T17:53:10;21.40;52.30
27823;DHT22;29019;47.630;8.262;2023-06-01T17:57:12;21.40;52.30
27823;DHT22;29019;47.630;8.262;2023-06-01T18:01:13;21.40;52.30
27823;DHT22;29019;47.630;8.262;2023-06-01T18:05:14;21.40;52.30
27823;DHT22;29019;47.630;8.262;2023-06-01T18:09:15;21.40;52.30
27823;DHT22;29019;47.630;8.262;2023-06-01T18:13:15;21.40;52.30
27823;DHT22;29019;47.630;8.262;2023-06-01T18:17:16;21.40;52.30
27823;DHT22;29019;47.630;8.262;2023-06-01T18:21:17;21.40;52.30
27823;DHT22;29019;47.630;8.262;2023-06-01T18:25:18;21.40;52.40
27823;DHT22;29019;47.630;8.262;2023-06-01T18:29:19;21.40;52.40
27823;DHT22;29019;47.630;8.262;2023-06-01T18:33:19;21.40;52.40
27823;DHT22;29019;47.630;8.262;2023-06-01T18:37:20;21.30;52.30
27823;DHT22;29019;47.630;8.262;2023-06-01T18:41:21;21.40;52.40
27823;DHT22;29019;47.630;8.262;2023-06-01T18:45:22;21.40;52.40
27823;DHT22;29019;47.630;8.262;2023-06-01T18:49:22;21.40;52.40
27823;DHT22;29019;47.630;8.262;2023-06-01T18:53:23;21.40;52.40
27823;DHT22;29019;47.630;8.262;2023-06-01T18:57:24;21.40;52.40
27823;DHT22;29019;47.630;8.262;2023-06-01T19:01:24;21.40;52.40
27823;DHT22;29019;47.630;8.262;2023-06-01T19:05:25;21.40;52.40
27823;DHT22;29019;47.630;8.262;2023-06-01T19:09:26;21.40;52.40
27823;DHT22;29019;47.630;8.262;2023-06-01T19:17:35;21.40;52.40
27823;DHT22;29019;47.630;8.262;2023-06-01T19:21:36;21.40;52.40
27823;DHT22;29019;47.630;8.262;2023-06-01T19:25:37;21.40;52.40
27823;DHT22;29019;47.630;8.262;2023-06-01T19:29:39;21.40;52.40
27823;DHT22;29019;47.630;8.262;2023-06-01T19:33:41;21.40;52.40
27823;DHT22;29019;47.630;8.262;2023-06-01T19:37:48;21.40;52.40
27823;DHT22;29019;47.630;8.262;2023-06-01T19:41:52;21.40;52.40
27823;DHT22;29019;47.630;8.262;2023-06-01T19:45:53;21.40;52.40
27823;DHT22;29019;47.630;8.262;2023-06-01T19:49:53;21.40;52.40
27823;DHT22;29019;47.630;8.262;2023-06-01T19:53:54;21.40;52.40
27823;DHT22;29019;47.630;8.262;2023-06-01T19:57:55;21.40;52.40
27823;DHT22;29019;47.630;8.262;2023-06-01T20:01:57;21.30;52.40
27823;DHT22;29019;47.630;8.262;2023-06-01T20:05:57;21.30;52.40
27823;DHT22;29019;47.630;8.262;2023-06-01T20:09:58;21.30;52.40
27823;DHT22;29019;47.630;8.262;2023-06-01T20:13:59;21.30;52.50
27823;DHT22;29019;47.630;8.262;2023-06-01T20:18:01;21.30;52.50
27823;DHT22;29019;47.630;8.262;2023-06-01T20:22:02;21.30;52.40
27823;DHT22;29019;47.630;8.262;2023-06-01T20:26:04;21.30;52.40
27823;DHT22;29019;47.630;8.262;2023-06-01T20:34:27;21.30;52.40
27823;DHT22;29019;47.630;8.262;2023-06-01T20:38:28;21.30;52.40
27823;DHT22;29019;47.630;8.262;2023-06-01T20:42:29;21.30;52.40
27823;DHT22;29019;47.630;8.262;2023-06-01T20:46:30;21.30;52.40
27823;DHT22;29019;47.630;8.262;2023-06-01T20:50:32;21.30;52.40
27823;DHT22;29019;47.630;8.262;2023-06-01T20:54:32;21.40;52.50
27823;DHT22;29019;47.630;8.262;2023-06-01T20:58:35;21.40;52.50
27823;DHT22;29019;47.630;8.262;2023-06-01T21:02:35;21.40;52.50
27823;DHT22;29019;47.630;8.262;2023-06-01T21:06:36;21.30;52.40
27823;DHT22;29019;47.630;8.262;2023-06-01T21:10:37;21.30;52.40
27823;DHT22;29019;47.630;8.262;2023-06-01T21:14:38;21.40;52.50
27823;DHT22;29019;47.630;8.262;2023-06-01T21:18:38;21.40;52.50
27823;DHT22;29019;47.630;8.262;2023-06-01T21:22:39;21.40;52.50
27823;DHT22;29019;47.630;8.262;2023-06-01T21:26:40;21.30;52.40
27823;DHT22;29019;47.630;8.262;2023-06-01T21:30:41;21.40;52.50
27823;DHT22;29019;47.630;8.262;2023-06-01T21:34:42;21.30;52.50
27823;DHT22;29019;47.630;8.262;2023-06-01T21:38:43;21.30;52.50
27823;DHT22;29019;47.630;8.262;2023-06-01T21:42:44;21.30;52.50
27823;DHT22;29019;47.630;8.262;2023-06-01T21:46:44;21.30;52.50
27823;DHT22;29019;47.630;8.262;2023-06-01T21:50:45;21.30;52.60
27823;DHT22;29019;47.630;8.262;2023-06-01T21:54:47;21.30;52.50
27823;DHT22;29019;47.630;8.262;2023-06-01T21:58:47;21.30;52.50
27823;DHT22;29019;47.630;8.262;2023-06-01T22:02:48;21.30;52.50
27823;DHT22;29019;47.630;8.262;2023-06-01T22:06:49;21.30;52.50
27823;DHT22;29019;47.630;8.262;2023-06-01T22:10:49;21.30;52.50
27823;DHT22;29019;47.630;8.262;2023-06-01T22:14:50;21.30;52.50
27823;DHT22;29019;47.630;8.262;2023-06-01T22:18:51;21.30;52.50
27823;DHT22;29019;47.630;8.262;2023-06-01T22:22:51;21.30;52.50
27823;DHT22;29019;47.630;8.262;2023-06-01T22:26:52;21.30;52.50
27823;DHT22;29019;47.630;8.262;2023-06-01T22:30:53;21.30;52.50
27823;DHT22;29019;47.630;8.262;2023-06-01T22:34:53;21.30;52.50
27823;DHT22;29019;47.630;8.262;2023-06-01T22:38:54;21.30;52.50
27823;DHT22;29019;47.630;8.262;2023-06-01T22:42:55;21.30;52.50
27823;DHT22;29019;47.630;8.262;2023-06-01T22:46:55;21.30;52.50
27823;DHT22;29019;47.630;8.262;2023-06-01T22:50:56;21.30;52.50
27823;DHT22;29019;47.630;8.262;2023-06-01T22:55:00;21.30;52.50
27823;DHT22;29019;47.630;8.262;2023-06-01T22:59:05;21.30;52.50
27823;DHT22;29019;47.630;8.262;2023-06-01T23:03:06;21.30;52.50
27823;DHT22;29019;47.630;8.262;2023-06-01T23:07:07;21.30;52.50
27823;DHT22;29019;47.630;8.262;2023-06-01T23:11:08;21.30;52.60
27823;DHT22;29019;47.630;8.262;2023-06-01T23:15:09;21.30;52.60
27823;DHT22;29019;47.630;8.262;2023-06-01T23:19:14;21.30;52.60
27823;DHT22;29019;47.630;8.262;2023-06-01T23:23:16;21.30;52.60
27823;DHT22;29019;47.630;8.262;2023-06-01T23:27:17;21.30;52.60
27823;DHT22;29019;47.630;8.262;2023-06-01T23:31:17;21.30;52.60
27823;DHT22;29019;47.630;8.262;2023-06-01T23:35:18;21.30;52.60
27823;DHT22;29019;47.630;8.262;2023-06-01T23:39:19;21.30;52.60
27823;DHT22;29019;47.630;8.262;2023-06-01T23:43:21;21.30;52.60
27823;DHT22;29019;47.630;8.262;2023-06-01T23:47:22;21.30;52.60
27823;DHT22;29019;47.630;8.262;2023-06-01T23:51:23;21.30;52.60
27823;DHT22;29019;47.630;8.262;2023-06-01T23:55:23;21.30;52.60
27823;DHT22;29019;47.630;8.262;2023-06-01T23:59:24;21.30;52.60
